Terminal Aerodrome Forecast
Issued by NWS

Home | Current Version | Previous Version | Text Only | Print | Product List | Glossary On
Versions: 1 2 3 4 5 6 7 8 9 10 11 12 13 14
368
FTUS43 KDLH 262340
TAFHYR
TAF
KHYR 262340Z 2700/2724 36008KT P6SM SCT050
     FM270900 VRB02KT P6SM VCSH SCT030 BKN070
      TEMPO 2709/2713 6SM -SHRA BKN035 OVC060
     FM271300 27005KT P6SM BKN070
     FM271700 34010G16KT P6SM SCT020 BKN060
     FM271900 34010G16KT P6SM BKN020=

USA.gov is the U.S. government's official web portal to all federal, state and local government web resources and services.